createdAt,value
2019-04-01T00:01:30.234Z,99362.55
2019-04-01T00:04:43.939Z,99360.72
2019-04-01T00:07:57.398Z,99362.89
2019-04-01T00:11:10.966Z,99363.11
2019-04-01T00:14:24.777Z,99359.45
2019-04-01T00:17:38.251Z,99362.81
2019-04-01T00:20:51.728Z,99359.12
2019-04-01T00:24:05.288Z,99358.19
2019-04-01T00:27:18.767Z,99356.66
2019-04-01T00:30:32.752Z,99356.92
2019-04-01T00:33:46.218Z,99352.42
2019-04-01T00:36:59.701Z,99359.94
2019-04-01T00:40:13.274Z,99361.84
2019-04-01T00:43:46.700Z,99359.42
2019-04-01T00:47:00.398Z,99359.08
2019-04-01T00:50:13.888Z,99357.41
2019-04-01T00:53:27.344Z,99359.09
2019-04-01T00:56:41.202Z,99354.21
2019-04-01T00:59:54.958Z,99354.00
2019-04-01T01:03:08.685Z,99357.52
2019-04-01T01:06:22.275Z,99351.83
2019-04-01T01:09:36.047Z,99349.28
2019-04-01T01:12:49.887Z,99348.60
2019-04-01T01:16:03.348Z,99346.17
2019-04-01T01:19:17.247Z,99343.76
2019-04-01T01:22:31.115Z,99344.65
2019-04-01T01:25:44.699Z,99340.94
2019-04-01T01:28:58.180Z,99343.28
2019-04-01T01:32:11.780Z,99339.67
2019-04-01T01:35:25.269Z,99339.40
2019-04-01T01:38:39.016Z,99343.33
2019-04-01T01:41:52.499Z,99338.30
2019-04-01T01:45:06.192Z,99333.27
2019-04-01T01:48:19.968Z,99329.14
2019-04-01T01:51:33.475Z,99325.53
2019-04-01T01:54:46.969Z,99332.23
2019-04-01T01:58:00.835Z,99322.91
2019-04-01T02:01:14.321Z,99324.94
2019-04-01T02:04:27.889Z,99321.23
2019-04-01T02:07:41.632Z,99323.44
2019-04-01T02:10:55.616Z,99318.20
2019-04-01T02:14:09.368Z,99319.73
2019-04-01T02:17:23.434Z,99317.73
2019-04-01T02:20:36.904Z,99310.44
2019-04-01T02:23:50.499Z,99309.88
2019-04-01T02:27:04.461Z,99307.31
2019-04-01T02:30:18.215Z,99301.40
2019-04-01T02:33:31.706Z,99296.61
2019-04-01T02:36:45.201Z,99302.56
2019-04-01T02:39:59.028Z,99302.31
2019-04-01T02:43:12.619Z,99301.05
2019-04-01T02:46:26.199Z,99304.16
2019-04-01T02:49:39.699Z,99303.88
2019-04-01T02:52:53.308Z,99302.88
2019-04-01T02:56:06.775Z,99305.05
2019-04-01T02:59:20.269Z,99306.35
2019-04-01T03:02:33.750Z,99302.05
2019-04-01T03:05:47.258Z,99303.91
2019-04-01T03:09:01.553Z,99302.70
2019-04-01T03:12:15.029Z,99297.55
2019-04-01T03:15:28.625Z,99301.57
2019-04-01T03:18:42.100Z,99305.70
2019-04-01T03:21:55.809Z,99304.77
2019-04-01T03:25:09.589Z,99303.30
2019-04-01T03:28:23.445Z,99301.58
2019-04-01T03:31:37.026Z,99302.36
2019-04-01T03:34:50.597Z,99304.22
2019-04-01T03:38:04.193Z,99307.83
2019-04-01T03:41:17.766Z,99307.17
2019-04-01T03:44:31.343Z,99295.24
2019-04-01T03:47:45.185Z,99300.70
2019-04-01T03:50:58.684Z,99298.38
2019-04-01T03:54:12.176Z,99305.69
2019-04-01T03:57:25.650Z,99304.83
2019-04-01T04:00:39.224Z,99308.44
2019-04-01T04:03:52.801Z,99309.02
2019-04-01T04:07:06.570Z,99307.23
2019-04-01T04:10:20.167Z,99306.48
2019-04-01T04:13:33.777Z,99306.09
2019-04-01T04:16:47.518Z,99309.13
2019-04-01T04:20:01.107Z,99310.02
2019-04-01T04:23:14.568Z,99311.53
2019-04-01T04:26:28.094Z,99314.52
2019-04-01T04:29:41.559Z,99316.58
2019-04-01T04:32:55.413Z,99316.55
2019-04-01T04:36:08.888Z,99318.40
2019-04-01T04:39:22.879Z,99321.11
2019-04-01T04:42:36.353Z,99318.16
2019-04-01T04:45:49.960Z,99318.45
2019-04-01T04:49:03.504Z,99313.71
2019-04-01T04:52:16.970Z,99311.80
2019-04-01T04:55:30.447Z,99312.77
2019-04-01T04:58:43.915Z,99314.14
2019-04-01T05:01:57.521Z,99318.08
2019-04-01T05:05:11.299Z,99317.76
2019-04-01T05:08:25.059Z,99320.10
2019-04-01T05:11:38.588Z,99322.52
2019-04-01T05:14:52.437Z,99318.28
2019-04-01T05:18:06.352Z,99323.91
2019-04-01T05:21:20.544Z,99326.45
2019-04-01T05:24:34.833Z,99321.13
2019-04-01T05:27:48.712Z,99329.64
2019-04-01T05:31:05.675Z,99330.98
2019-04-01T05:34:20.950Z,99335.37
2019-04-01T05:37:35.120Z,99331.50
2019-04-01T05:40:48.800Z,99325.84
2019-04-01T05:44:02.643Z,99327.67
2019-04-01T05:47:18.359Z,99325.78
2019-04-01T05:50:32.075Z,99330.78
2019-04-01T05:53:45.770Z,99324.59
2019-04-01T05:56:59.672Z,99338.63
2019-04-01T06:00:21.001Z,99335.98
2019-04-01T06:03:34.683Z,99343.28
2019-04-01T06:06:49.098Z,99331.52
2019-04-01T06:10:03.305Z,99335.05
2019-04-01T06:13:17.163Z,99333.68
2019-04-01T06:16:30.999Z,99334.08
2019-04-01T06:19:44.980Z,99332.42
2019-04-01T06:22:58.753Z,99341.47
2019-04-01T06:26:12.344Z,99339.23
2019-04-01T06:29:26.347Z,99331.53
2019-04-01T06:32:39.920Z,99336.06
2019-04-01T06:35:53.713Z,99332.34
2019-04-01T06:39:07.529Z,99325.73
2019-04-01T06:42:21.421Z,99322.17
2019-04-01T06:45:35.261Z,99325.73
2019-04-01T06:48:48.840Z,99335.38
2019-04-01T06:52:02.918Z,99333.06
2019-04-01T06:55:16.856Z,99332.34
2019-04-01T06:58:30.655Z,99330.79
2019-04-01T07:01:44.367Z,99323.61
2019-04-01T07:04:58.113Z,99329.66
2019-04-01T07:08:11.935Z,99328.55
2019-04-01T07:11:25.601Z,99324.30
2019-04-01T07:14:39.880Z,99319.09
2019-04-01T07:17:53.861Z,99309.94
2019-04-01T07:21:10.143Z,99307.55
2019-04-01T07:24:23.720Z,99310.59
2019-04-01T07:27:38.103Z,99308.33
2019-04-01T07:30:51.793Z,99308.76
2019-04-01T07:34:05.655Z,99316.45
2019-04-01T07:37:19.244Z,99315.21
2019-04-01T07:40:33.535Z,99307.61
2019-04-01T07:43:47.512Z,99307.19
2019-04-01T07:47:01.634Z,99316.53
2019-04-01T07:50:15.285Z,99309.05
2019-04-01T07:53:29.099Z,99307.37
2019-04-01T07:56:42.578Z,99310.05
2019-04-01T07:59:56.969Z,99311.22
2019-04-01T08:03:10.976Z,99308.74
2019-04-01T08:06:24.851Z,99304.06
2019-04-01T08:09:39.024Z,99307.14
2019-04-01T08:12:52.603Z,99306.29
2019-04-01T08:16:06.280Z,99306.14
2019-04-01T08:19:19.981Z,99306.21
2019-04-01T08:22:33.659Z,99292.45
2019-04-01T08:25:48.115Z,99302.25
2019-04-01T08:29:01.895Z,99299.21
2019-04-01T08:32:15.590Z,99304.63
2019-04-01T08:35:29.503Z,99299.93
2019-04-01T08:38:43.203Z,99298.28
2019-04-01T08:41:56.804Z,99298.02
2019-04-01T08:45:10.671Z,99295.43
2019-04-01T08:48:25.035Z,99290.53
2019-04-01T08:51:38.951Z,99282.78
2019-04-01T08:54:52.545Z,99282.80
2019-04-01T08:58:06.411Z,99281.09
2019-04-01T09:01:34.161Z,99277.56
2019-04-01T09:04:35.377Z,99290.03
2019-04-01T09:07:49.456Z,99280.94
2019-04-01T09:11:03.133Z,99281.95
2019-04-01T09:14:17.223Z,99275.69
2019-04-01T09:17:30.736Z,99276.09
2019-04-01T09:20:44.311Z,99262.74
2019-04-01T09:23:57.923Z,99261.66
2019-04-01T09:27:11.703Z,99256.34
2019-04-01T09:30:25.434Z,99256.13
2019-04-01T09:33:39.333Z,99250.64
2019-04-01T09:36:52.921Z,99247.23
2019-04-01T09:40:07.026Z,99245.19
2019-04-01T09:43:21.065Z,99246.75
2019-04-01T09:46:34.739Z,99236.16
2019-04-01T09:49:48.220Z,99234.93
2019-04-01T09:53:01.806Z,99233.27
2019-04-01T09:56:15.270Z,99239.23
2019-04-01T09:59:28.752Z,99233.52
2019-04-01T10:02:42.660Z,99224.82
2019-04-01T10:05:56.496Z,99219.77
2019-04-01T10:09:10.198Z,99216.30
2019-04-01T10:12:23.895Z,99221.55
2019-04-01T10:15:37.389Z,99209.72
2019-04-01T10:18:50.979Z,99208.42
2019-04-01T10:22:04.900Z,99203.98
2019-04-01T10:25:18.488Z,99203.54
2019-04-01T10:28:32.491Z,99201.95
2019-04-01T10:31:46.476Z,99193.31
2019-04-01T10:35:00.407Z,99192.28
2019-04-01T10:38:14.284Z,99189.80
2019-04-01T10:41:28.008Z,99185.94
2019-04-01T10:44:41.847Z,99175.61
2019-04-01T10:47:55.354Z,99166.62
2019-04-01T10:51:09.095Z,99169.45
2019-04-01T10:54:23.017Z,99165.14
2019-04-01T10:57:36.825Z,99165.78
2019-04-01T11:00:50.728Z,99161.98
2019-04-01T11:04:06.200Z,99149.66
2019-04-01T11:07:22.985Z,99145.15
2019-04-01T11:10:37.726Z,99145.11
2019-04-01T11:13:54.380Z,99144.31
2019-04-01T11:17:10.561Z,99135.47
2019-04-01T11:20:25.984Z,99131.89
2019-04-01T11:23:39.666Z,99129.05
2019-04-01T11:26:53.481Z,99128.99
2019-04-01T11:30:08.482Z,99123.73
2019-04-01T11:33:22.086Z,99114.95
2019-04-01T11:36:35.764Z,99114.50
2019-04-01T11:39:49.307Z,99111.70
2019-04-01T11:43:04.922Z,99107.79
2019-04-01T11:46:18.346Z,99108.66
2019-04-01T11:49:32.087Z,99097.25
2019-04-01T11:52:45.822Z,99097.00
2019-04-01T11:55:59.535Z,99085.99
2019-04-01T11:59:13.028Z,99078.77
2019-04-01T12:02:26.609Z,99078.74
2019-04-01T12:05:40.502Z,99070.27
2019-04-01T12:08:53.998Z,99065.15
2019-04-01T12:12:22.332Z,99055.14
2019-04-01T12:15:23.094Z,99051.58
2019-04-01T12:18:36.697Z,99049.16
2019-04-01T12:21:50.300Z,99055.06
2019-04-01T12:25:04.804Z,99050.50
2019-04-01T12:28:18.900Z,99035.14
2019-04-01T12:31:32.623Z,99031.22
2019-04-01T12:34:46.809Z,99014.26
2019-04-01T12:38:00.764Z,99009.88
2019-04-01T12:41:15.113Z,99003.78
2019-04-01T12:44:28.916Z,99000.14
2019-04-01T12:47:43.402Z,99005.69
2019-04-01T12:50:57.975Z,98990.88
2019-04-01T12:54:12.063Z,98988.13
2019-04-01T12:57:26.016Z,98994.30
2019-04-01T13:00:39.526Z,98988.92
2019-04-01T13:03:53.014Z,98989.95
2019-04-01T13:07:06.618Z,98979.72
2019-04-01T13:10:20.565Z,98969.63
2019-04-01T13:13:34.096Z,98969.88
2019-04-01T13:16:47.974Z,98956.09
2019-04-01T13:20:01.667Z,98958.63
2019-04-01T13:23:15.193Z,98950.52
2019-04-01T13:26:28.732Z,98951.97
2019-04-01T13:29:42.458Z,98944.90
2019-04-01T13:32:56.125Z,98935.62
2019-04-01T13:36:09.936Z,98939.53
2019-04-01T13:39:23.925Z,98923.71
2019-04-01T13:42:37.604Z,98920.06
2019-04-01T13:45:51.270Z,98912.39
2019-04-01T13:49:05.051Z,98900.62
2019-04-01T13:52:19.139Z,98899.74
2019-04-01T13:55:33.046Z,98895.09
2019-04-01T13:58:46.880Z,98886.05
2019-04-01T14:02:00.696Z,98893.52
2019-04-01T14:05:14.639Z,98878.77
2019-04-01T14:08:28.621Z,98871.57
2019-04-01T14:11:42.669Z,98878.25
2019-04-01T14:14:56.415Z,98874.08
2019-04-01T14:18:10.020Z,98868.45
2019-04-01T14:21:23.753Z,98864.28
2019-04-01T14:24:37.525Z,98860.41
2019-04-01T14:27:51.147Z,98855.63
2019-04-01T14:31:05.234Z,98848.48
2019-04-01T14:34:23.216Z,98851.03
2019-04-01T14:37:35.147Z,98831.98
2019-04-01T14:40:49.049Z,98826.36
2019-04-01T14:44:03.000Z,98830.38
2019-04-01T14:47:16.586Z,98830.53
2019-04-01T14:50:30.457Z,98823.84
2019-04-01T14:53:43.946Z,98817.89
2019-04-01T14:56:57.555Z,98824.86
2019-04-01T15:00:12.544Z,98820.08
2019-04-01T15:03:26.029Z,98816.69
2019-04-01T15:06:39.514Z,98808.66
2019-04-01T15:09:53.102Z,98803.90
2019-04-01T15:13:06.745Z,98801.26
2019-04-01T15:16:20.342Z,98797.05
2019-04-01T15:19:33.940Z,98795.08
2019-04-01T15:22:47.456Z,98791.31
2019-04-01T15:26:01.226Z,98782.48
2019-04-01T15:29:15.254Z,98789.98
2019-04-01T15:32:28.992Z,98789.33
2019-04-01T15:35:42.726Z,98783.83
2019-04-01T15:38:56.526Z,98781.55
2019-04-01T15:42:10.299Z,98765.83
2019-04-01T15:45:24.347Z,98774.20
2019-04-01T15:48:38.070Z,98771.05
2019-04-01T15:51:51.605Z,98759.43
2019-04-01T15:55:05.351Z,98765.35
2019-04-01T15:58:18.844Z,98756.91
2019-04-01T16:01:32.464Z,98759.16
2019-04-01T16:04:46.511Z,98754.97
2019-04-01T16:08:00.275Z,98755.38
2019-04-01T16:11:13.912Z,98747.86
2019-04-01T16:14:27.808Z,98743.55
2019-04-01T16:17:41.520Z,98740.69
2019-04-01T16:20:55.543Z,98735.16
2019-04-01T16:24:11.274Z,98729.47
2019-04-01T16:27:24.907Z,98728.66
2019-04-01T16:30:38.538Z,98728.00
2019-04-01T16:33:52.560Z,98722.89
2019-04-01T16:37:06.247Z,98732.16
2019-04-01T16:40:20.234Z,98727.84
2019-04-01T16:43:33.979Z,98724.38
2019-04-01T16:46:47.718Z,98722.38
2019-04-01T16:50:01.674Z,98717.74
2019-04-01T16:53:15.415Z,98719.46
2019-04-01T16:56:29.189Z,98723.59
2019-04-01T16:59:42.819Z,98712.83
2019-04-01T17:02:57.021Z,98720.80
2019-04-01T17:06:10.816Z,98725.75
2019-04-01T17:09:24.335Z,98726.52
2019-04-01T17:12:37.944Z,98728.37
2019-04-01T17:15:51.539Z,98722.78
2019-04-01T17:19:05.178Z,98721.50
2019-04-01T17:22:19.209Z,98718.56
2019-04-01T17:25:32.977Z,98720.62
2019-04-01T17:28:47.020Z,98718.30
2019-04-01T17:32:00.624Z,98725.95
2019-04-01T17:35:14.529Z,98722.39
2019-04-01T17:38:28.276Z,98722.23
2019-04-01T17:41:46.114Z,98718.85
2019-04-01T17:45:02.700Z,98718.25
2019-04-01T17:48:16.712Z,98721.02
2019-04-01T17:51:31.047Z,98723.88
2019-04-01T17:54:44.630Z,98719.20
2019-04-01T17:57:58.335Z,98723.72
2019-04-01T18:01:12.168Z,98726.18
2019-04-01T18:04:26.036Z,98724.27
2019-04-01T18:07:39.535Z,98728.70
2019-04-01T18:10:53.125Z,98727.84
2019-04-01T18:14:06.613Z,98732.45
2019-04-01T18:17:20.481Z,98729.04
2019-04-01T18:20:34.453Z,98734.08
2019-04-01T18:23:48.039Z,98734.41
2019-04-01T18:27:01.523Z,98730.79
2019-04-01T18:30:15.840Z,98739.37
2019-04-01T18:33:30.298Z,98738.85
2019-04-01T18:36:44.142Z,98738.78
2019-04-01T18:39:57.614Z,98741.08
2019-04-01T18:43:11.123Z,98748.71
2019-04-01T18:46:24.616Z,98747.70
2019-04-01T18:49:38.085Z,98746.77
2019-04-01T18:52:51.570Z,98749.83
2019-04-01T18:56:05.472Z,98754.17
2019-04-01T18:59:19.044Z,98758.19
2019-04-01T19:02:32.539Z,98756.27
2019-04-01T19:05:47.075Z,98761.99
2019-04-01T19:09:09.205Z,98761.64
2019-04-01T19:12:16.461Z,98763.54
2019-04-01T19:15:31.180Z,98770.09
2019-04-01T19:18:44.974Z,98774.70
2019-04-01T19:21:58.769Z,98782.64
2019-04-01T19:25:12.474Z,98772.31
2019-04-01T19:28:26.231Z,98773.14
2019-04-01T19:31:41.170Z,98773.55
2019-04-01T19:34:55.005Z,98783.10
2019-04-01T19:38:08.609Z,98774.42
2019-04-01T19:41:22.109Z,98774.63
2019-04-01T19:44:35.681Z,98776.83
2019-04-01T19:47:49.164Z,98775.58
2019-04-01T19:51:02.951Z,98782.81
2019-04-01T19:54:16.426Z,98785.86
2019-04-01T19:57:30.028Z,98781.28
2019-04-01T20:00:43.519Z,98780.66
2019-04-01T20:03:57.079Z,98775.16
2019-04-01T20:07:10.784Z,98776.48
2019-04-01T20:13:54.737Z,98774.91
2019-04-01T20:17:07.192Z,98769.14
2019-04-01T20:20:20.762Z,98776.95
2019-04-01T20:23:34.240Z,98770.57
2019-04-01T20:26:47.758Z,98769.56
2019-04-01T20:30:01.396Z,98777.08
2019-04-01T20:33:18.087Z,98763.14
2019-04-01T20:36:31.416Z,98767.22
2019-04-01T20:39:45.455Z,98761.08
2019-04-01T20:42:59.451Z,98763.39
2019-04-01T20:46:13.343Z,98760.94
2019-04-01T20:49:26.829Z,98764.23
2019-04-01T20:52:40.804Z,98765.86
2019-04-01T20:55:54.311Z,98760.99
2019-04-01T20:59:07.808Z,98764.03
2019-04-01T21:02:21.520Z,98758.27
2019-04-01T21:05:35.007Z,98757.39
2019-04-01T21:08:48.491Z,98751.73
2019-04-01T21:12:03.135Z,98750.78
2019-04-01T21:15:16.880Z,98750.35
2019-04-01T21:18:30.387Z,98752.09
2019-04-01T21:21:43.884Z,98741.80
2019-04-01T21:24:57.360Z,98743.13
2019-04-01T21:28:10.839Z,98744.28
2019-04-01T21:31:24.575Z,98744.55
2019-04-01T21:34:38.066Z,98746.19
2019-04-01T21:37:51.597Z,98743.27
2019-04-01T21:41:05.183Z,98745.08
2019-04-01T21:44:18.680Z,98747.63
2019-04-01T21:47:32.557Z,98737.70
2019-04-01T21:50:46.390Z,98737.51
2019-04-01T21:54:00.301Z,98727.98
2019-04-01T21:57:13.973Z,98721.02
2019-04-01T22:00:38.726Z,98720.39
2019-04-01T22:03:52.216Z,98720.55
2019-04-01T22:07:05.695Z,98712.69
2019-04-01T22:10:19.182Z,98709.06
2019-04-01T22:13:32.936Z,98705.80
2019-04-01T22:16:48.032Z,98704.05
2019-04-01T22:20:02.315Z,98703.84
2019-04-01T22:23:16.249Z,98706.81
2019-04-01T22:26:29.832Z,98699.43
2019-04-01T22:29:43.423Z,98696.53
2019-04-01T22:32:57.260Z,98700.26
2019-04-01T22:36:11.419Z,98696.55
2019-04-01T22:39:27.194Z,98694.51
2019-04-01T22:42:41.215Z,98696.60
2019-04-01T22:45:54.975Z,98695.77
2019-04-01T22:49:08.456Z,98691.26
2019-04-01T22:52:21.944Z,98689.41
2019-04-01T22:55:35.541Z,98690.41
2019-04-01T22:58:49.023Z,98689.83
2019-04-01T23:02:02.605Z,98689.28
2019-04-01T23:05:16.434Z,98681.34
2019-04-01T23:08:31.057Z,98684.72
2019-04-01T23:11:44.718Z,98688.41
2019-04-01T23:14:58.206Z,98679.30
2019-04-01T23:18:11.706Z,98679.12
2019-04-01T23:21:25.584Z,98677.31
2019-04-01T23:24:39.072Z,98674.00
2019-04-01T23:27:52.556Z,98667.13
2019-04-01T23:31:06.043Z,98675.07
2019-04-01T23:34:19.535Z,98662.11
2019-04-01T23:37:33.114Z,98664.48
2019-04-01T23:40:46.607Z,98666.87
2019-04-01T23:44:00.103Z,98664.94
2019-04-01T23:47:13.674Z,98655.89
2019-04-01T23:50:27.159Z,98653.03
2019-04-01T23:53:40.626Z,98657.23
2019-04-01T23:56:54.215Z,98653.84
